createdAt,value
2019-05-07T00:01:23.803Z,9.39
2019-05-07T00:03:54.932Z,9.37
2019-05-07T00:06:26.240Z,9.36
2019-05-07T00:08:57.373Z,9.32
2019-05-07T00:11:28.575Z,9.30
2019-05-07T00:13:59.827Z,9.30
2019-05-07T00:16:32.494Z,9.32
2019-05-07T00:19:03.842Z,9.34
2019-05-07T00:21:35.074Z,9.31
2019-05-07T00:24:06.369Z,9.30
2019-05-07T00:26:37.705Z,9.26
2019-05-07T00:29:08.842Z,9.23
2019-05-07T00:31:41.937Z,9.17
2019-05-07T00:34:14.614Z,9.15
2019-05-07T00:37:02.236Z,9.16
2019-05-07T00:39:46.234Z,9.18
2019-05-07T00:42:28.605Z,9.20
2019-05-07T00:45:14.203Z,9.21
2019-05-07T00:47:34.976Z,9.24
2019-05-07T00:50:12.976Z,9.26
2019-05-07T00:52:44.289Z,9.27
2019-05-07T00:55:16.561Z,9.26
2019-05-07T00:57:47.734Z,9.65
2019-05-07T01:00:22.182Z,9.45
2019-05-07T01:02:52.950Z,9.41
2019-05-07T01:05:24.184Z,9.38
2019-05-07T01:07:55.502Z,9.36
2019-05-07T01:10:27.774Z,9.27
2019-05-07T01:12:59.411Z,9.22
2019-05-07T01:15:32.165Z,9.21
2019-05-07T01:18:03.510Z,9.15
2019-05-07T01:20:34.799Z,9.15
2019-05-07T01:23:06.047Z,9.09
2019-05-07T01:25:37.273Z,9.05
2019-05-07T01:28:08.514Z,9.05
2019-05-07T01:30:39.694Z,9.04
2019-05-07T01:33:18.346Z,9.03
2019-05-07T01:36:23.844Z,9.00
2019-05-07T01:38:55.032Z,9.40
2019-05-07T01:41:26.289Z,9.13
2019-05-07T01:43:57.533Z,9.09
2019-05-07T01:46:28.830Z,9.05
2019-05-07T01:48:59.986Z,9.02
2019-05-07T01:51:32.787Z,9.04
2019-05-07T01:54:04.172Z,9.04
2019-05-07T01:56:36.941Z,9.04
2019-05-07T01:59:08.139Z,9.04
2019-05-07T02:01:39.334Z,9.04
2019-05-07T02:04:17.538Z,9.00
2019-05-07T02:07:06.645Z,8.98
2019-05-07T02:09:45.297Z,8.96
2019-05-07T02:12:35.456Z,8.97
2019-05-07T02:15:08.225Z,8.92
2019-05-07T02:17:39.603Z,9.31
2019-05-07T02:20:12.926Z,9.06
2019-05-07T02:22:43.812Z,8.98
2019-05-07T02:25:15.030Z,8.94
2019-05-07T02:27:46.256Z,8.90
2019-05-07T02:30:17.481Z,8.86
2019-05-07T02:32:48.645Z,8.87
2019-05-07T02:35:19.820Z,8.88
2019-05-07T02:37:57.251Z,8.87
2019-05-07T02:41:03.062Z,8.87
2019-05-07T02:43:34.303Z,8.87
2019-05-07T02:46:26.481Z,8.86
2019-05-07T02:48:59.351Z,9.24
2019-05-07T02:51:35.642Z,9.06
2019-05-07T02:54:24.225Z,9.04
2019-05-07T02:56:54.392Z,9.02
2019-05-07T02:59:26.669Z,8.98
2019-05-07T03:01:57.862Z,8.95
2019-05-07T03:04:29.031Z,8.91
2019-05-07T03:07:03.639Z,8.87
2019-05-07T03:09:33.264Z,8.86
2019-05-07T03:12:04.532Z,9.25
2019-05-07T03:14:35.820Z,9.01
2019-05-07T03:17:07.045Z,8.97
2019-05-07T03:19:42.755Z,8.96
2019-05-07T03:22:13.903Z,8.96
2019-05-07T03:25:03.329Z,8.96
2019-05-07T03:27:34.687Z,8.96
2019-05-07T03:30:16.611Z,8.93
2019-05-07T03:32:56.566Z,8.89
2019-05-07T03:35:37.743Z,8.88
2019-05-07T03:38:08.950Z,8.88
2019-05-07T03:40:40.170Z,8.86
2019-05-07T03:43:13.857Z,8.86
2019-05-07T03:46:03.789Z,8.86
2019-05-07T03:48:36.807Z,8.88
2019-05-07T03:51:08.099Z,8.89
2019-05-07T03:53:39.378Z,8.89
2019-05-07T03:56:13.071Z,8.87
2019-05-07T03:58:43.843Z,8.85
2019-05-07T04:01:15.071Z,8.85
2019-05-07T04:03:47.949Z,8.83
2019-05-07T04:06:19.110Z,8.80
2019-05-07T04:08:52.987Z,8.79
2019-05-07T04:11:23.369Z,8.78
2019-05-07T04:13:54.624Z,8.80
2019-05-07T04:16:27.019Z,8.80
2019-05-07T04:18:58.567Z,8.81
2019-05-07T04:21:29.746Z,8.83
2019-05-07T04:24:16.323Z,8.85
2019-05-07T04:26:54.337Z,8.86
2019-05-07T04:29:25.567Z,8.85
2019-05-07T04:31:56.890Z,8.87
2019-05-07T04:34:45.721Z,8.87
2019-05-07T04:37:17.020Z,8.86
2019-05-07T04:39:54.380Z,8.82
2019-05-07T04:42:25.759Z,8.80
2019-05-07T04:44:57.045Z,8.80
2019-05-07T04:47:38.557Z,8.79
2019-05-07T04:50:03.877Z,8.79
2019-05-07T04:52:36.306Z,8.78
2019-05-07T04:55:08.475Z,8.79
2019-05-07T04:57:39.704Z,8.80
2019-05-07T05:00:13.370Z,8.80
2019-05-07T05:03:03.681Z,8.81
2019-05-07T05:05:34.910Z,8.81
2019-05-07T05:08:06.178Z,8.82
2019-05-07T05:10:37.357Z,8.81
2019-05-07T05:13:08.597Z,8.81
2019-05-07T05:15:39.873Z,8.79
2019-05-07T05:18:12.710Z,8.78
2019-05-07T05:21:22.842Z,8.71
2019-05-07T05:23:58.530Z,8.69
2019-05-07T05:26:31.869Z,8.59
2019-05-07T05:29:02.856Z,8.59
2019-05-07T05:31:34.028Z,8.63
2019-05-07T05:34:05.274Z,8.68
2019-05-07T05:36:36.490Z,8.68
2019-05-07T05:39:08.925Z,8.69
2019-05-07T05:41:42.382Z,8.72
2019-05-07T05:44:22.904Z,8.76
2019-05-07T05:46:55.130Z,8.81
2019-05-07T05:49:26.345Z,8.88
2019-05-07T05:52:07.548Z,8.92
2019-05-07T05:55:07.845Z,8.97
2019-05-07T05:57:52.255Z,9.03
2019-05-07T06:00:42.673Z,9.06
2019-05-07T06:03:38.852Z,9.09
2019-05-07T06:06:25.870Z,9.13
2019-05-07T06:09:18.813Z,9.14
2019-05-07T06:12:03.648Z,9.14
2019-05-07T06:14:54.850Z,9.20
2019-05-07T06:17:36.525Z,9.27
2019-05-07T06:20:27.437Z,9.38
2019-05-07T06:23:22.536Z,9.78
2019-05-07T06:25:53.322Z,9.68
2019-05-07T06:28:24.554Z,9.70
2019-05-07T06:30:56.839Z,9.76
2019-05-07T06:33:28.136Z,9.84
2019-05-07T06:35:59.344Z,9.90
2019-05-07T06:38:33.595Z,9.98
2019-05-07T06:41:17.949Z,9.99
2019-05-07T06:43:56.325Z,10.01
2019-05-07T06:46:27.578Z,10.04
2019-05-07T06:48:58.803Z,10.09
2019-05-07T06:51:30.071Z,10.14
2019-05-07T06:54:02.764Z,10.17
2019-05-07T06:56:34.188Z,10.20
2019-05-07T06:59:10.252Z,10.23
2019-05-07T07:02:05.767Z,10.19
2019-05-07T07:04:42.382Z,10.21
2019-05-07T07:07:27.470Z,10.25
2019-05-07T07:10:13.183Z,10.29
2019-05-07T07:12:44.380Z,10.33
2019-05-07T07:15:16.814Z,10.38
2019-05-07T07:17:47.999Z,10.43
2019-05-07T07:20:19.236Z,10.39
2019-05-07T07:22:52.052Z,10.39
2019-05-07T07:25:23.457Z,10.40
2019-05-07T07:27:54.849Z,10.38
2019-05-07T07:30:42.012Z,10.35
2019-05-07T07:33:13.579Z,10.37
2019-05-07T07:35:44.808Z,10.42
2019-05-07T07:38:34.973Z,10.45
2019-05-07T07:41:12.867Z,10.44
2019-05-07T07:43:44.139Z,10.43
2019-05-07T07:46:16.614Z,10.43
2019-05-07T07:48:47.929Z,10.47
2019-05-07T07:51:34.214Z,10.84
2019-05-07T07:53:53.074Z,10.74
2019-05-07T07:56:55.709Z,10.81
2019-05-07T07:59:52.800Z,10.88
2019-05-07T08:02:42.454Z,10.91
2019-05-07T08:05:13.862Z,10.92
2019-05-07T08:07:45.086Z,10.91
2019-05-07T08:10:16.308Z,10.90
2019-05-07T08:12:47.489Z,10.86
2019-05-07T08:15:23.718Z,10.84
2019-05-07T08:17:52.240Z,10.86
2019-05-07T08:20:24.088Z,10.91
2019-05-07T08:22:55.338Z,10.95
2019-05-07T08:25:45.516Z,11.03
2019-05-07T08:28:17.559Z,11.09
2019-05-07T08:31:08.012Z,11.07
2019-05-07T08:33:47.111Z,11.07
2019-05-07T08:36:18.795Z,11.07
2019-05-07T08:38:52.817Z,11.05
2019-05-07T08:41:25.594Z,11.03
2019-05-07T08:44:11.967Z,11.00
2019-05-07T08:47:02.794Z,10.89
2019-05-07T08:49:39.632Z,10.89
2019-05-07T08:52:07.971Z,10.96
2019-05-07T08:54:39.278Z,11.06
2019-05-07T08:57:12.187Z,11.15
2019-05-07T08:59:57.238Z,11.23
2019-05-07T09:02:16.275Z,11.28
2019-05-07T09:04:47.508Z,11.29
2019-05-07T09:07:18.743Z,11.18
2019-05-07T09:09:52.077Z,11.15
2019-05-07T09:12:23.151Z,11.15
2019-05-07T09:14:54.421Z,11.17
2019-05-07T09:17:25.647Z,11.23
2019-05-07T09:19:56.838Z,11.29
2019-05-07T09:22:28.112Z,11.38
2019-05-07T09:24:59.401Z,11.41
2019-05-07T09:27:39.407Z,11.40
2019-05-07T09:30:35.835Z,11.35
2019-05-07T09:33:22.693Z,11.41
2019-05-07T09:35:55.528Z,11.51
2019-05-07T09:38:26.838Z,11.64
2019-05-07T09:40:58.090Z,11.71
2019-05-07T09:43:29.268Z,11.76
2019-05-07T09:46:02.496Z,11.74
2019-05-07T09:48:33.948Z,11.74
2019-05-07T09:51:05.280Z,11.75
2019-05-07T09:53:36.489Z,11.82
2019-05-07T09:56:07.707Z,11.91
2019-05-07T09:58:39.328Z,12.01
2019-05-07T10:01:12.576Z,12.08
2019-05-07T10:03:43.633Z,12.07
2019-05-07T10:06:14.888Z,12.02
2019-05-07T10:08:46.134Z,12.01
2019-05-07T10:11:26.293Z,12.08
2019-05-07T10:14:04.610Z,12.16
2019-05-07T10:16:42.526Z,12.19
2019-05-07T10:19:13.915Z,12.16
2019-05-07T10:21:45.117Z,12.14
2019-05-07T10:24:16.375Z,12.18
2019-05-07T10:26:47.600Z,12.26
2019-05-07T10:29:18.816Z,12.26
2019-05-07T10:31:50.053Z,12.25
2019-05-07T10:34:22.853Z,12.32
2019-05-07T10:36:54.342Z,12.34
2019-05-07T10:39:25.569Z,12.37
2019-05-07T10:41:57.850Z,12.36
2019-05-07T10:44:34.269Z,12.33
2019-05-07T10:47:30.671Z,12.38
2019-05-07T10:50:35.449Z,12.45
2019-05-07T10:52:56.377Z,12.56
2019-05-07T10:55:27.651Z,12.64
2019-05-07T10:57:58.870Z,12.68
2019-05-07T11:00:30.131Z,12.63
2019-05-07T11:03:02.340Z,12.59
2019-05-07T11:05:33.770Z,12.53
2019-05-07T11:08:05.067Z,12.50
2019-05-07T11:10:36.221Z,12.46
2019-05-07T11:13:07.651Z,12.53
2019-05-07T11:15:39.637Z,12.62
2019-05-07T11:18:36.180Z,12.71
2019-05-07T11:21:07.556Z,12.82
2019-05-07T11:23:38.805Z,12.94
2019-05-07T11:26:11.827Z,13.04
2019-05-07T11:28:43.147Z,13.11
2019-05-07T11:31:14.379Z,13.17
2019-05-07T11:33:45.662Z,13.22
2019-05-07T11:36:17.057Z,13.33
2019-05-07T11:38:48.321Z,13.36
2019-05-07T11:41:24.680Z,13.47
2019-05-07T11:44:07.186Z,13.60
2019-05-07T11:46:57.403Z,13.70
2019-05-07T11:49:48.649Z,13.70
2019-05-07T11:52:27.059Z,13.66
2019-05-07T11:54:58.316Z,13.58
2019-05-07T11:57:29.650Z,13.51
2019-05-07T12:00:02.842Z,13.52
2019-05-07T12:02:34.259Z,13.56
2019-05-07T12:05:06.090Z,13.63
2019-05-07T12:07:37.400Z,13.70
2019-05-07T12:10:08.744Z,13.74
2019-05-07T12:12:47.927Z,13.76
2019-05-07T12:15:19.271Z,13.80
2019-05-07T12:17:52.121Z,13.90
2019-05-07T12:20:23.791Z,13.99
2019-05-07T12:22:55.070Z,14.12
2019-05-07T12:25:26.227Z,14.28
2019-05-07T12:27:57.374Z,14.44
2019-05-07T12:30:46.487Z,14.46
2019-05-07T12:33:36.656Z,14.52
2019-05-07T12:36:09.039Z,14.61
2019-05-07T12:38:41.726Z,14.76
2019-05-07T12:41:33.686Z,14.99
2019-05-07T12:44:07.029Z,15.22
2019-05-07T12:46:39.123Z,15.36
2019-05-07T12:49:11.974Z,15.29
2019-05-07T12:51:50.864Z,15.36
2019-05-07T12:54:47.113Z,15.42
2019-05-07T12:57:18.325Z,15.31
2019-05-07T12:59:49.745Z,15.43
2019-05-07T13:02:46.354Z,15.63
2019-05-07T13:05:17.542Z,15.89
2019-05-07T13:07:52.102Z,16.14
2019-05-07T13:10:23.257Z,16.30
2019-05-07T13:12:54.491Z,16.48
2019-05-07T13:15:28.060Z,16.56
2019-05-07T13:17:58.680Z,16.67
2019-05-07T13:20:31.917Z,16.64
2019-05-07T13:23:02.870Z,16.52
2019-05-07T13:25:34.244Z,16.56
2019-05-07T13:28:05.512Z,16.65
2019-05-07T13:30:36.825Z,16.85
2019-05-07T13:33:07.984Z,17.02
2019-05-07T13:35:39.214Z,17.25
2019-05-07T13:38:48.033Z,17.62
2019-05-07T13:41:51.846Z,17.90
2019-05-07T13:44:31.930Z,17.66
2019-05-07T13:47:21.925Z,17.49
2019-05-07T13:49:53.985Z,17.38
2019-05-07T13:52:25.956Z,17.32
2019-05-07T13:54:57.292Z,17.64
2019-05-07T13:57:28.542Z,18.04
2019-05-07T14:00:02.336Z,18.40
2019-05-07T14:02:33.299Z,18.57
2019-05-07T14:05:05.147Z,18.38
2019-05-07T14:07:37.976Z,18.15
2019-05-07T14:10:09.296Z,17.90
2019-05-07T14:12:42.391Z,17.83
2019-05-07T14:15:14.067Z,17.62
2019-05-07T14:17:45.387Z,17.53
2019-05-07T14:20:16.991Z,17.35
2019-05-07T14:22:48.216Z,17.15
2019-05-07T14:25:19.408Z,16.89
2019-05-07T14:27:52.525Z,16.75
2019-05-07T14:30:24.441Z,16.59
2019-05-07T14:33:05.957Z,16.41
2019-05-07T14:35:48.681Z,16.24
2019-05-07T14:38:27.512Z,16.12
2019-05-07T14:41:00.170Z,16.01
2019-05-07T14:43:41.851Z,15.94
2019-05-07T14:46:13.293Z,15.85
2019-05-07T14:48:44.490Z,15.77
2019-05-07T14:51:15.764Z,15.76
2019-05-07T14:53:46.990Z,16.04
2019-05-07T14:56:19.152Z,16.74
2019-05-07T14:58:51.691Z,17.38
2019-05-07T15:01:22.913Z,17.63
2019-05-07T15:03:54.155Z,17.61
2019-05-07T15:06:25.408Z,17.40
2019-05-07T15:08:56.626Z,17.23
2019-05-07T15:11:27.918Z,17.19
2019-05-07T15:13:59.201Z,17.14
2019-05-07T15:16:31.987Z,17.00
2019-05-07T15:19:03.253Z,16.93
2019-05-07T15:21:34.678Z,16.92
2019-05-07T15:24:06.061Z,17.12
2019-05-07T15:26:37.315Z,17.56
2019-05-07T15:29:12.191Z,17.83
2019-05-07T15:32:09.243Z,18.07
2019-05-07T15:34:42.129Z,18.27
2019-05-07T15:37:13.397Z,18.43
2019-05-07T15:39:44.612Z,18.52
2019-05-07T15:42:15.859Z,18.58
2019-05-07T15:44:47.028Z,18.50
2019-05-07T15:47:23.564Z,18.30
2019-05-07T15:49:54.799Z,18.07
2019-05-07T15:52:43.621Z,17.78
2019-05-07T15:55:15.053Z,17.36
2019-05-07T15:57:46.352Z,16.91
2019-05-07T16:00:18.947Z,16.57
2019-05-07T16:02:53.737Z,16.36
2019-05-07T16:05:25.187Z,16.17
2019-05-07T16:07:56.397Z,16.05
2019-05-07T16:10:27.562Z,15.93
2019-05-07T16:12:58.787Z,15.83
2019-05-07T16:15:31.772Z,15.73
2019-05-07T16:18:06.674Z,15.68
2019-05-07T16:20:38.068Z,15.72
2019-05-07T16:23:14.706Z,15.84
2019-05-07T16:25:42.346Z,15.98
2019-05-07T16:28:13.520Z,16.14
2019-05-07T16:30:44.742Z,16.30
2019-05-07T16:33:15.936Z,16.41
2019-05-07T16:35:47.125Z,16.40
2019-05-07T16:38:18.400Z,16.42
2019-05-07T16:40:49.532Z,16.38
2019-05-07T16:43:22.105Z,16.33
2019-05-07T16:45:53.330Z,16.26
2019-05-07T16:48:24.502Z,16.19
2019-05-07T16:50:56.787Z,16.12
2019-05-07T16:53:30.245Z,16.03
2019-05-07T16:56:02.747Z,15.91
2019-05-07T16:58:43.974Z,15.80
2019-05-07T17:01:15.239Z,15.70
2019-05-07T17:03:52.096Z,15.61
2019-05-07T17:06:25.216Z,15.52
2019-05-07T17:09:09.651Z,15.37
2019-05-07T17:11:41.047Z,15.18
2019-05-07T17:14:12.949Z,15.05
2019-05-07T17:16:44.483Z,15.00
2019-05-07T17:19:15.896Z,14.96
2019-05-07T17:21:48.890Z,14.93
2019-05-07T17:24:22.208Z,14.90
2019-05-07T17:26:53.212Z,14.88
2019-05-07T17:29:24.459Z,14.89
2019-05-07T17:31:55.725Z,14.90
2019-05-07T17:34:27.167Z,14.90
2019-05-07T17:36:58.366Z,14.94
2019-05-07T17:39:32.173Z,14.99
2019-05-07T17:42:03.881Z,15.08
2019-05-07T17:44:35.625Z,15.16
2019-05-07T17:47:06.979Z,15.10
2019-05-07T17:49:38.239Z,15.02
2019-05-07T17:52:10.552Z,14.95
2019-05-07T17:54:43.624Z,14.86
2019-05-07T17:57:15.997Z,14.78
2019-05-07T17:59:47.253Z,14.69
2019-05-07T18:02:43.851Z,14.61
2019-05-07T18:05:15.514Z,14.56
2019-05-07T18:07:46.701Z,14.52
2019-05-07T18:10:18.019Z,14.52
2019-05-07T18:12:51.322Z,14.49
2019-05-07T18:15:22.162Z,14.47
2019-05-07T18:18:00.896Z,14.43
2019-05-07T18:20:32.803Z,14.42
2019-05-07T18:23:07.084Z,14.39
2019-05-07T18:25:37.480Z,14.36
2019-05-07T18:28:08.805Z,14.33
2019-05-07T18:30:40.047Z,14.27
2019-05-07T18:33:36.349Z,14.21
2019-05-07T18:36:07.678Z,14.16
2019-05-07T18:38:38.915Z,14.12
2019-05-07T18:41:12.234Z,14.09
2019-05-07T18:43:43.018Z,14.06
2019-05-07T18:46:14.180Z,13.98
2019-05-07T18:48:45.491Z,13.90
2019-05-07T18:51:16.678Z,13.81
2019-05-07T18:53:47.931Z,13.71
2019-05-07T18:56:19.111Z,13.65
2019-05-07T18:58:52.026Z,13.60
2019-05-07T19:01:25.015Z,13.55
2019-05-07T19:03:57.077Z,13.51
2019-05-07T19:06:28.381Z,13.48
2019-05-07T19:08:59.683Z,13.46
2019-05-07T19:11:32.134Z,13.43
2019-05-07T19:14:03.485Z,13.43
2019-05-07T19:16:34.838Z,13.39
2019-05-07T19:19:05.984Z,13.38
2019-05-07T19:21:37.252Z,13.36
2019-05-07T19:24:08.489Z,13.36
2019-05-07T19:26:41.933Z,13.35
2019-05-07T19:29:12.765Z,13.34
2019-05-07T19:31:44.143Z,13.33
2019-05-07T19:34:15.302Z,13.32
2019-05-07T19:36:46.550Z,13.29
2019-05-07T19:39:17.828Z,13.27
2019-05-07T19:41:49.053Z,13.25
2019-05-07T19:44:20.283Z,13.21
2019-05-07T19:46:52.450Z,13.18
2019-05-07T19:49:25.013Z,13.14
2019-05-07T19:51:56.326Z,13.07
2019-05-07T19:54:27.630Z,13.00
2019-05-07T19:56:58.822Z,12.96
2019-05-07T19:59:30.069Z,12.96
2019-05-07T20:02:02.990Z,12.95
2019-05-07T20:04:34.193Z,12.92
2019-05-07T20:07:05.482Z,12.89
2019-05-07T20:09:37.797Z,12.89
2019-05-07T20:12:08.956Z,12.89
2019-05-07T20:14:42.176Z,12.88
2019-05-07T20:17:13.106Z,12.86
2019-05-07T20:19:44.275Z,12.85
2019-05-07T20:22:15.517Z,12.82
2019-05-07T20:24:47.067Z,12.77
2019-05-07T20:27:19.406Z,12.75
2019-05-07T20:29:52.226Z,12.73
2019-05-07T20:32:23.683Z,12.72
2019-05-07T20:34:54.950Z,12.69
2019-05-07T20:37:26.195Z,12.67
2019-05-07T20:39:57.535Z,12.66
2019-05-07T20:42:28.758Z,12.63
2019-05-07T20:45:02.831Z,12.60
2019-05-07T20:47:33.472Z,12.58
2019-05-07T20:50:05.009Z,12.55
2019-05-07T20:52:36.229Z,12.52
2019-05-07T20:55:28.147Z,12.49
2019-05-07T20:57:50.875Z,12.45
2019-05-07T21:00:25.296Z,12.41
2019-05-07T21:03:14.090Z,12.38
2019-05-07T21:05:45.347Z,12.33
2019-05-07T21:08:17.546Z,12.28
2019-05-07T21:10:48.731Z,12.23
2019-05-07T21:13:28.548Z,12.19
2019-05-07T21:15:52.928Z,12.14
2019-05-07T21:18:24.221Z,12.11
2019-05-07T21:20:55.574Z,12.06
2019-05-07T21:23:27.892Z,12.01
2019-05-07T21:25:59.080Z,11.96
2019-05-07T21:28:32.182Z,11.92
2019-05-07T21:31:03.104Z,11.88
2019-05-07T21:33:34.377Z,11.82
2019-05-07T21:36:05.606Z,11.78
2019-05-07T21:38:36.814Z,11.76
2019-05-07T21:41:08.045Z,11.73
2019-05-07T21:43:39.231Z,11.70
2019-05-07T21:46:12.584Z,11.68
2019-05-07T21:48:43.398Z,11.64
2019-05-07T21:51:14.545Z,11.59
2019-05-07T21:54:07.719Z,11.56
2019-05-07T21:56:56.469Z,11.52
2019-05-07T21:59:28.636Z,11.50
2019-05-07T22:02:02.288Z,11.45
2019-05-07T22:04:33.558Z,11.43
2019-05-07T22:07:04.904Z,11.40
2019-05-07T22:09:37.407Z,11.36
2019-05-07T22:12:08.639Z,11.31
2019-05-07T22:14:40.907Z,11.27
2019-05-07T22:17:12.726Z,11.23
2019-05-07T22:19:44.252Z,11.19
2019-05-07T22:22:15.459Z,11.15
2019-05-07T22:24:49.361Z,11.11
2019-05-07T22:27:22.162Z,11.06
2019-05-07T22:30:14.005Z,11.00
2019-05-07T22:33:07.953Z,10.94
2019-05-07T22:35:56.492Z,10.89
2019-05-07T22:38:29.290Z,10.85
2019-05-07T22:41:02.132Z,10.82
2019-05-07T22:43:33.526Z,10.79
2019-05-07T22:46:04.734Z,10.74
2019-05-07T22:48:35.940Z,10.71
2019-05-07T22:51:07.122Z,10.67
2019-05-07T22:53:38.345Z,10.64
2019-05-07T22:56:09.609Z,10.61
2019-05-07T22:58:45.143Z,10.55
2019-05-07T23:01:16.369Z,10.52
2019-05-07T23:03:47.686Z,10.48
2019-05-07T23:06:18.877Z,10.44
2019-05-07T23:08:49.976Z,10.39
2019-05-07T23:11:22.922Z,10.35
2019-05-07T23:13:54.945Z,10.34
2019-05-07T23:16:26.400Z,10.30
2019-05-07T23:18:57.522Z,10.26
2019-05-07T23:21:28.722Z,10.22
2019-05-07T23:23:59.910Z,10.18
2019-05-07T23:26:33.532Z,10.14
2019-05-07T23:29:04.032Z,10.12
2019-05-07T23:31:35.214Z,10.08
2019-05-07T23:34:06.435Z,10.06
2019-05-07T23:36:37.663Z,10.03
2019-05-07T23:39:11.905Z,10.01
2019-05-07T23:41:52.595Z,9.98
2019-05-07T23:44:23.526Z,9.94
2019-05-07T23:46:54.732Z,9.91
2019-05-07T23:49:25.850Z,9.89
2019-05-07T23:51:57.026Z,9.85
2019-05-07T23:54:28.181Z,9.81
2019-05-07T23:57:07.164Z,9.77
2019-05-07T23:59:32.951Z,9.73
